Rijkevorsel, Belgium
Current Conditions -  °F | °C
As of 10:33 AM on Friday 31 Oct 2014 (Local Time) from EHGR Reporting Station
Overcast Overcast  
Wind Chill: 57°   Ceiling: 9300
Heat Index: 57°   Visibility: 6mi
Dew Point: 54°   Wind: 7mph
Humidity: 88%   Direction: 200°SSW
Pressure: 30.18"   Gusts: NA
Location:  51.35°N, 4.76°E
Report Text: EHGR 310933Z AUTO 20006KT 9999 OVC093 14/12 Q1022 BLU 19008KT CAVOK
Loading
Personal Weather Stations






























Interactive Weather Map New forecast layout! Learn more

10-Day Weather Forecast

Advertisements
Track Severe Weather on mobile